createdAt,value
2023-07-25T00:01:16.571Z,100087.80
2023-07-25T00:03:44.417Z,100093.20
2023-07-25T00:06:12.147Z,100090.20
2023-07-25T00:08:40.046Z,100088.00
2023-07-25T00:11:14.772Z,100089.20
2023-07-25T00:13:42.585Z,100091.40
2023-07-25T00:16:10.362Z,100088.60
2023-07-25T00:18:38.184Z,100086.20
2023-07-25T00:21:05.864Z,100092.40
2023-07-25T00:23:33.617Z,100088.40
2023-07-25T00:26:01.377Z,100083.00
2023-07-25T00:28:29.132Z,100084.80
2023-07-25T00:30:56.852Z,100084.00
2023-07-25T00:33:24.646Z,100079.00
2023-07-25T00:35:53.786Z,100075.20
2023-07-25T00:38:21.536Z,100063.80
2023-07-25T00:40:49.256Z,100062.40
2023-07-25T00:43:17.369Z,100057.40
2023-07-25T00:45:45.248Z,100059.00
2023-07-25T00:48:14.111Z,100061.20
2023-07-25T00:50:41.913Z,100066.80
2023-07-25T00:53:10.902Z,100070.00
2023-07-25T00:55:39.585Z,100071.60
2023-07-25T00:58:07.413Z,100077.00
2023-07-25T01:00:39.410Z,100083.20
2023-07-25T01:03:07.958Z,100084.80
2023-07-25T01:05:46.351Z,100083.60
2023-07-25T01:08:14.142Z,100086.80
2023-07-25T01:10:41.883Z,100086.40
2023-07-25T01:13:09.613Z,100082.40
2023-07-25T01:15:37.517Z,100078.60
2023-07-25T01:18:07.417Z,100080.00
2023-07-25T01:20:36.886Z,100080.00
2023-07-25T01:23:07.277Z,100078.60
2023-07-25T01:25:36.521Z,100079.60
2023-07-25T01:28:04.545Z,100082.80
2023-07-25T01:30:32.510Z,100084.00
2023-07-25T01:33:00.467Z,100083.00
2023-07-25T01:35:28.522Z,100080.80
2023-07-25T01:37:56.308Z,100078.00
2023-07-25T01:40:24.158Z,100073.80
2023-07-25T01:42:52.219Z,100075.40
2023-07-25T01:45:20.134Z,100073.40
2023-07-25T01:47:47.940Z,100074.60
2023-07-25T01:50:16.722Z,100078.40
2023-07-25T01:52:44.677Z,100078.00
2023-07-25T01:55:12.557Z,100076.80
2023-07-25T01:57:40.256Z,100078.00
2023-07-25T02:00:08.861Z,100082.80
2023-07-25T02:02:40.903Z,100080.40
2023-07-25T02:05:08.994Z,100073.00
2023-07-25T02:07:38.424Z,100072.80
2023-07-25T02:10:06.879Z,100075.40
2023-07-25T02:12:34.636Z,100071.60
2023-07-25T02:15:02.462Z,100071.80
2023-07-25T02:17:30.205Z,100069.00
2023-07-25T02:19:57.920Z,100067.00
2023-07-25T02:22:25.608Z,100069.80
2023-07-25T02:24:53.611Z,100077.60
2023-07-25T02:27:21.394Z,100077.00
2023-07-25T02:29:49.314Z,100078.60
2023-07-25T02:32:17.009Z,100078.20
2023-07-25T02:34:44.691Z,100074.40
2023-07-25T02:37:12.456Z,100072.20
2023-07-25T02:39:44.030Z,100077.00
2023-07-25T02:42:11.791Z,100077.60
2023-07-25T02:44:39.569Z,100082.40
2023-07-25T02:47:07.945Z,100081.00
2023-07-25T02:49:36.976Z,100083.40
2023-07-25T02:52:05.341Z,100085.40
2023-07-25T02:54:33.055Z,100084.20
2023-07-25T02:57:00.781Z,100083.80
2023-07-25T02:59:30.820Z,100077.60
2023-07-25T03:01:58.883Z,100078.00
2023-07-25T03:04:26.720Z,100077.20
2023-07-25T03:06:54.483Z,100075.80
2023-07-25T03:09:22.264Z,100079.00
2023-07-25T03:11:50.122Z,100076.20
2023-07-25T03:14:18.102Z,100079.40
2023-07-25T03:16:45.894Z,100076.00
2023-07-25T03:19:13.726Z,100075.80
2023-07-25T03:21:41.522Z,100075.20
2023-07-25T03:24:09.211Z,100075.60
2023-07-25T03:26:37.561Z,100075.00
2023-07-25T03:29:05.598Z,100073.60
2023-07-25T03:31:34.038Z,100078.40
2023-07-25T03:34:02.233Z,100074.80
2023-07-25T03:36:30.253Z,100079.00
2023-07-25T03:38:58.036Z,100083.20
2023-07-25T03:41:25.993Z,100083.20
2023-07-25T03:43:53.720Z,100089.80
2023-07-25T03:46:21.488Z,100093.20
2023-07-25T03:48:49.320Z,100093.20
2023-07-25T03:51:17.111Z,100095.20
2023-07-25T03:53:44.834Z,100094.40
2023-07-25T03:56:12.586Z,100091.60
2023-07-25T03:58:40.336Z,100092.00
2023-07-25T04:01:08.073Z,100088.60
2023-07-25T04:03:35.900Z,100091.40
2023-07-25T04:06:03.936Z,100093.40
2023-07-25T04:08:31.856Z,100096.40
2023-07-25T04:10:59.560Z,100094.80
2023-07-25T04:13:27.337Z,100095.20
2023-07-25T04:15:55.133Z,100098.80
2023-07-25T04:18:23.141Z,100099.80
2023-07-25T04:20:50.903Z,100103.20
2023-07-25T04:23:23.009Z,100106.20
2023-07-25T04:25:50.806Z,100105.60
2023-07-25T04:28:19.219Z,100098.40
2023-07-25T04:30:46.952Z,100101.40
2023-07-25T04:33:14.675Z,100099.00
2023-07-25T04:35:46.261Z,100101.20
2023-07-25T04:38:15.564Z,100096.80
2023-07-25T04:40:44.978Z,100098.80
2023-07-25T04:43:12.927Z,100103.60
2023-07-25T04:45:40.935Z,100101.20
2023-07-25T04:48:08.893Z,100103.60
2023-07-25T04:50:36.887Z,100104.00
2023-07-25T04:53:05.881Z,100105.20
2023-07-25T04:55:33.592Z,100100.40
2023-07-25T04:58:01.314Z,100101.00
2023-07-25T05:00:30.824Z,100105.20
2023-07-25T05:02:58.898Z,100109.00
2023-07-25T05:05:26.881Z,100107.60
2023-07-25T05:07:54.591Z,100107.00
2023-07-25T05:10:22.423Z,100111.00
2023-07-25T05:12:50.214Z,100105.80
2023-07-25T05:15:18.165Z,100113.80
2023-07-25T05:17:45.910Z,100119.60
2023-07-25T05:20:14.370Z,100119.40
2023-07-25T05:22:42.084Z,100118.40
2023-07-25T05:25:10.126Z,100114.80
2023-07-25T05:27:37.877Z,100117.40
2023-07-25T05:30:07.107Z,100117.60
2023-07-25T05:32:38.017Z,100120.40
2023-07-25T05:35:06.708Z,100121.80
2023-07-25T05:37:37.378Z,100116.20
2023-07-25T05:40:06.998Z,100110.60
2023-07-25T05:42:34.996Z,100113.00
2023-07-25T05:45:02.929Z,100112.00
2023-07-25T05:47:30.927Z,100123.60
2023-07-25T05:49:58.828Z,100123.80
2023-07-25T05:52:26.675Z,100119.80
2023-07-25T05:54:54.801Z,100117.00
2023-07-25T05:57:22.646Z,100118.20
2023-07-25T05:59:50.379Z,100118.20
2023-07-25T06:02:18.142Z,100123.80
2023-07-25T06:04:47.396Z,100120.80
2023-07-25T06:07:16.707Z,100120.80
2023-07-25T06:09:44.501Z,100124.40
2023-07-25T06:12:12.475Z,100127.40
2023-07-25T06:14:40.349Z,100123.40
2023-07-25T06:17:08.201Z,100126.00
2023-07-25T06:19:36.034Z,100131.20
2023-07-25T06:22:03.876Z,100136.00
2023-07-25T06:24:41.488Z,100134.20
2023-07-25T06:27:11.499Z,100140.40
2023-07-25T06:29:39.303Z,100144.20
2023-07-25T06:32:07.701Z,100146.20
2023-07-25T06:34:35.833Z,100150.00
2023-07-25T06:37:03.778Z,100151.60
2023-07-25T06:39:31.634Z,100160.60
2023-07-25T06:41:59.343Z,100167.00
2023-07-25T06:44:29.045Z,100165.20
2023-07-25T06:46:56.836Z,100163.00
2023-07-25T06:49:24.599Z,100171.40
2023-07-25T06:51:52.340Z,100170.00
2023-07-25T06:54:20.072Z,100168.80
2023-07-25T06:56:47.876Z,100172.20
2023-07-25T06:59:15.666Z,100172.80
2023-07-25T07:01:43.456Z,100169.40
2023-07-25T07:04:11.417Z,100166.80
2023-07-25T07:06:39.381Z,100171.00
2023-07-25T07:09:07.089Z,100167.60
2023-07-25T07:11:34.912Z,100170.20
2023-07-25T07:14:02.706Z,100168.20
2023-07-25T07:16:30.486Z,100173.00
2023-07-25T07:18:58.303Z,100165.20
2023-07-25T07:21:26.173Z,100161.60
2023-07-25T07:23:54.153Z,100167.80
2023-07-25T07:26:21.959Z,100168.40
2023-07-25T07:28:50.727Z,100165.60
2023-07-25T07:31:24.437Z,100158.00
2023-07-25T07:33:53.429Z,100159.40
2023-07-25T07:36:21.186Z,100160.40
2023-07-25T07:38:48.916Z,100159.20
2023-07-25T07:41:16.661Z,100159.00
2023-07-25T07:43:44.392Z,100162.40
2023-07-25T07:46:12.127Z,100158.60
2023-07-25T07:48:42.024Z,100158.40
2023-07-25T07:51:10.040Z,100158.80
2023-07-25T07:53:39.622Z,100160.60
2023-07-25T07:56:08.645Z,100166.20
2023-07-25T07:58:36.483Z,100165.00
2023-07-25T08:01:04.869Z,100163.20
2023-07-25T08:03:32.818Z,100160.80
2023-07-25T08:06:00.608Z,100157.60
2023-07-25T08:08:28.444Z,100163.40
2023-07-25T08:10:56.180Z,100158.00
2023-07-25T08:13:24.033Z,100158.80
2023-07-25T08:15:51.779Z,100163.20
2023-07-25T08:18:19.984Z,100161.60
2023-07-25T08:20:47.939Z,100170.00
2023-07-25T08:23:15.707Z,100172.40
2023-07-25T08:25:44.966Z,100168.40
2023-07-25T08:28:12.796Z,100165.20
2023-07-25T08:30:40.526Z,100169.40
2023-07-25T08:33:08.456Z,100170.00
2023-07-25T08:35:36.965Z,100167.40
2023-07-25T08:38:04.741Z,100165.80
2023-07-25T08:40:32.643Z,100172.60
2023-07-25T08:43:10.202Z,100174.80
2023-07-25T08:45:38.178Z,100173.80
2023-07-25T08:48:13.528Z,100181.00
2023-07-25T08:50:46.985Z,100180.60
2023-07-25T08:53:16.566Z,100182.20
2023-07-25T08:55:45.426Z,100183.00
2023-07-25T08:58:15.584Z,100179.40
2023-07-25T09:00:44.341Z,100181.40
2023-07-25T09:03:12.884Z,100190.20
2023-07-25T09:05:41.086Z,100182.20
2023-07-25T09:08:08.823Z,100183.20
2023-07-25T09:10:37.130Z,100182.40
2023-07-25T09:13:04.836Z,100180.20
2023-07-25T09:15:32.709Z,100186.60
2023-07-25T09:18:00.470Z,100176.00
2023-07-25T09:20:28.359Z,100178.80
2023-07-25T09:22:58.759Z,100176.60
2023-07-25T09:25:27.258Z,100179.80
2023-07-25T09:27:55.839Z,100183.80
2023-07-25T09:30:29.146Z,100184.20
2023-07-25T09:32:57.067Z,100180.60
2023-07-25T09:35:26.416Z,100178.00
2023-07-25T09:37:56.174Z,100184.60
2023-07-25T09:40:24.144Z,100185.40
2023-07-25T09:42:52.626Z,100185.20
2023-07-25T09:45:20.954Z,100188.60
2023-07-25T09:47:52.978Z,100185.20
2023-07-25T09:50:27.395Z,100182.80
2023-07-25T09:52:55.210Z,100179.60
2023-07-25T09:55:23.121Z,100187.60
2023-07-25T09:57:52.867Z,100186.40
2023-07-25T10:00:20.807Z,100198.60
2023-07-25T10:02:50.038Z,100194.20
2023-07-25T10:05:18.408Z,100196.00
2023-07-25T10:07:48.807Z,100195.00
2023-07-25T10:10:20.351Z,100198.80
2023-07-25T10:12:48.162Z,100200.20
2023-07-25T10:15:15.966Z,100201.00
2023-07-25T10:17:45.483Z,100201.20
2023-07-25T10:20:32.136Z,100198.20
2023-07-25T10:23:12.505Z,100195.20
2023-07-25T10:25:40.611Z,100195.60
2023-07-25T10:28:09.084Z,100194.60
2023-07-25T10:30:46.460Z,100190.60
2023-07-25T10:33:15.938Z,100198.00
2023-07-25T10:35:50.927Z,100195.40
2023-07-25T10:38:34.263Z,100191.00
2023-07-25T10:41:17.664Z,100188.40
2023-07-25T10:43:56.371Z,100190.20
2023-07-25T10:46:29.698Z,100192.80
2023-07-25T10:49:01.234Z,100193.20
2023-07-25T10:51:50.159Z,100193.80
2023-07-25T10:54:20.920Z,100194.20
2023-07-25T10:57:10.460Z,100192.00
2023-07-25T10:59:59.643Z,100197.80
2023-07-25T11:02:35.926Z,100193.00
2023-07-25T11:05:13.316Z,100187.00
2023-07-25T11:07:46.973Z,100189.00
2023-07-25T11:10:27.542Z,100198.20
2023-07-25T11:13:01.651Z,100191.60
2023-07-25T11:15:40.726Z,100196.60
2023-07-25T11:18:15.720Z,100192.20
2023-07-25T11:20:44.318Z,100194.80
2023-07-25T11:23:12.414Z,100192.20
2023-07-25T11:25:40.190Z,100187.20
2023-07-25T11:28:08.825Z,100204.00
2023-07-25T11:30:45.100Z,100204.60
2023-07-25T11:33:13.035Z,100206.40
2023-07-25T11:35:40.926Z,100200.20
2023-07-25T11:38:09.051Z,100202.80
2023-07-25T11:40:41.400Z,100207.80
2023-07-25T11:43:14.071Z,100206.80
2023-07-25T11:45:45.175Z,100209.20
2023-07-25T11:48:15.954Z,100207.60
2023-07-25T11:50:44.854Z,100208.40
2023-07-25T11:53:12.740Z,100207.80
2023-07-25T11:55:40.567Z,100209.40
2023-07-25T11:58:08.313Z,100214.60
2023-07-25T12:00:41.034Z,100211.00
2023-07-25T12:03:22.801Z,100209.40
2023-07-25T12:05:59.651Z,100207.20
2023-07-25T12:08:46.269Z,100208.60
2023-07-25T12:11:16.617Z,100202.40
2023-07-25T12:13:53.455Z,100205.60
2023-07-25T12:16:38.206Z,100201.80
2023-07-25T12:19:11.083Z,100204.00
2023-07-25T12:21:42.482Z,100204.80
2023-07-25T12:24:13.783Z,100204.40
2023-07-25T12:26:48.233Z,100200.60
2023-07-25T12:29:22.658Z,100193.00
2023-07-25T12:31:50.467Z,100194.60
2023-07-25T12:34:21.388Z,100199.00
2023-07-25T12:36:50.881Z,100206.40
2023-07-25T12:39:19.143Z,100201.40
2023-07-25T12:41:47.571Z,100194.80
2023-07-25T12:44:15.394Z,100192.00
2023-07-25T12:46:43.305Z,100199.20
2023-07-25T12:49:11.191Z,100196.00
2023-07-25T12:51:38.958Z,100199.40
2023-07-25T12:54:06.777Z,100199.40
2023-07-25T12:56:34.827Z,100206.60
2023-07-25T12:59:02.852Z,100205.80
2023-07-25T13:01:30.930Z,100195.40
2023-07-25T13:03:59.182Z,100197.20
2023-07-25T13:06:26.966Z,100194.40
2023-07-25T13:08:54.822Z,100185.80
2023-07-25T13:11:22.553Z,100193.00
2023-07-25T13:13:50.417Z,100191.00
2023-07-25T13:16:18.301Z,100192.00
2023-07-25T13:18:46.153Z,100187.80
2023-07-25T13:21:13.871Z,100194.20
2023-07-25T13:23:41.909Z,100184.80
2023-07-25T13:26:09.922Z,100187.60
2023-07-25T13:28:37.951Z,100193.40
2023-07-25T13:31:05.807Z,100202.60
2023-07-25T13:33:33.717Z,100202.80
2023-07-25T13:36:01.603Z,100200.60
2023-07-25T13:38:29.331Z,100204.60
2023-07-25T13:40:57.157Z,100202.80
2023-07-25T13:43:24.992Z,100205.20
2023-07-25T13:45:53.541Z,100210.80
2023-07-25T13:48:24.368Z,100209.00
2023-07-25T13:50:54.919Z,100214.00
2023-07-25T13:53:23.316Z,100210.20
2023-07-25T13:55:52.568Z,100208.40
2023-07-25T13:58:23.990Z,100206.20
2023-07-25T14:00:52.611Z,100210.20
2023-07-25T14:03:20.471Z,100207.20
2023-07-25T14:05:48.330Z,100202.40
2023-07-25T14:08:16.020Z,100198.20
2023-07-25T14:10:43.855Z,100198.80
2023-07-25T14:13:11.768Z,100196.20
2023-07-25T14:15:39.662Z,100192.60
2023-07-25T14:18:07.629Z,100184.20
2023-07-25T14:20:36.285Z,100189.00
2023-07-25T14:23:04.013Z,100193.20
2023-07-25T14:25:32.054Z,100195.40
2023-07-25T14:27:59.811Z,100197.60
2023-07-25T14:30:27.943Z,100182.40
2023-07-25T14:32:55.749Z,100185.20
2023-07-25T14:35:23.595Z,100192.80
2023-07-25T14:37:56.824Z,100191.00
2023-07-25T14:40:26.391Z,100193.60
2023-07-25T14:42:54.232Z,100192.40
2023-07-25T14:45:22.160Z,100195.60
2023-07-25T14:47:50.202Z,100197.80
2023-07-25T14:50:18.200Z,100206.80
2023-07-25T14:52:45.916Z,100209.00
2023-07-25T14:55:14.078Z,100212.80
2023-07-25T14:57:42.015Z,100210.60
2023-07-25T15:00:11.033Z,100210.60
2023-07-25T15:02:38.931Z,100200.80
2023-07-25T15:05:07.858Z,100212.40
2023-07-25T15:07:36.231Z,100206.20
2023-07-25T15:10:04.981Z,100208.40
2023-07-25T15:12:33.202Z,100206.40
2023-07-25T15:15:01.341Z,100208.00
2023-07-25T15:17:29.460Z,100215.60
2023-07-25T15:20:01.959Z,100217.00
2023-07-25T15:22:30.734Z,100225.20
2023-07-25T15:24:58.834Z,100221.60
2023-07-25T15:27:28.862Z,100219.40
2023-07-25T15:29:57.145Z,100222.00
2023-07-25T15:32:25.083Z,100225.40
2023-07-25T15:34:52.974Z,100222.00
2023-07-25T15:37:20.883Z,100224.40
2023-07-25T15:39:48.685Z,100225.60
2023-07-25T15:42:16.402Z,100216.00
2023-07-25T15:44:44.169Z,100215.00
2023-07-25T15:47:11.971Z,100215.40
2023-07-25T15:49:39.774Z,100213.60
2023-07-25T15:52:08.267Z,100213.00
2023-07-25T15:54:36.150Z,100218.80
2023-07-25T15:57:04.359Z,100219.80
2023-07-25T15:59:32.107Z,100216.00
2023-07-25T16:02:00.053Z,100211.80
2023-07-25T16:04:27.854Z,100212.20
2023-07-25T16:06:55.641Z,100210.60
2023-07-25T16:09:23.385Z,100209.80
2023-07-25T16:11:51.135Z,100203.00
2023-07-25T16:14:18.998Z,100203.00
2023-07-25T16:16:46.995Z,100206.80
2023-07-25T16:19:16.992Z,100203.00
2023-07-25T16:21:44.819Z,100207.20
2023-07-25T16:24:12.597Z,100207.60
2023-07-25T16:26:40.457Z,100210.20
2023-07-25T16:29:08.294Z,100209.00
2023-07-25T16:31:36.202Z,100213.80
2023-07-25T16:34:04.881Z,100218.00
2023-07-25T16:36:32.709Z,100213.80
2023-07-25T16:39:00.705Z,100220.20
2023-07-25T16:41:28.572Z,100223.60
2023-07-25T16:43:56.340Z,100218.40
2023-07-25T16:46:24.172Z,100221.80
2023-07-25T16:48:51.991Z,100219.40
2023-07-25T16:51:19.748Z,100217.60
2023-07-25T16:53:47.659Z,100216.00
2023-07-25T16:56:15.454Z,100224.60
2023-07-25T16:58:43.317Z,100236.40
2023-07-25T17:01:11.111Z,100232.40
2023-07-25T17:03:39.389Z,100237.60
2023-07-25T17:06:07.453Z,100237.40
2023-07-25T17:08:35.236Z,100241.40
2023-07-25T17:11:05.876Z,100242.00
2023-07-25T17:13:36.752Z,100247.40
2023-07-25T17:16:07.261Z,100248.00
2023-07-25T17:18:35.337Z,100249.60
2023-07-25T17:21:03.211Z,100245.60
2023-07-25T17:23:30.982Z,100250.80
2023-07-25T17:25:58.818Z,100258.20
2023-07-25T17:28:27.224Z,100258.20
2023-07-25T17:30:55.041Z,100257.40
2023-07-25T17:33:23.239Z,100258.00
2023-07-25T17:35:51.407Z,100257.80
2023-07-25T17:38:19.232Z,100255.40
2023-07-25T17:40:48.596Z,100257.40
2023-07-25T17:43:16.637Z,100255.60
2023-07-25T17:45:44.713Z,100257.40
2023-07-25T17:48:14.669Z,100266.80
2023-07-25T17:50:42.609Z,100268.20
2023-07-25T17:53:10.548Z,100274.60
2023-07-25T17:55:40.734Z,100277.20
2023-07-25T17:58:11.761Z,100278.80
2023-07-25T18:00:40.601Z,100279.20
2023-07-25T18:03:08.713Z,100279.20
2023-07-25T18:05:37.080Z,100281.00
2023-07-25T18:08:05.462Z,100280.60
2023-07-25T18:10:33.354Z,100279.00
2023-07-25T18:13:01.225Z,100282.80
2023-07-25T18:15:30.624Z,100285.80
2023-07-25T18:17:58.920Z,100287.00
2023-07-25T18:20:26.904Z,100289.40
2023-07-25T18:22:54.777Z,100288.20
2023-07-25T18:25:22.985Z,100292.00
2023-07-25T18:27:50.819Z,100289.80
2023-07-25T18:30:18.539Z,100292.40
2023-07-25T18:32:46.971Z,100287.60
2023-07-25T18:35:15.554Z,100291.20
2023-07-25T18:37:46.462Z,100291.40
2023-07-25T18:40:14.265Z,100292.00
2023-07-25T18:42:42.089Z,100298.20
2023-07-25T18:45:10.653Z,100299.60
2023-07-25T18:47:38.955Z,100297.20
2023-07-25T18:50:07.787Z,100300.20
2023-07-25T18:52:35.526Z,100302.20
2023-07-25T18:55:03.614Z,100306.00
2023-07-25T18:57:31.405Z,100306.40
2023-07-25T18:59:59.432Z,100309.00
2023-07-25T19:02:27.288Z,100305.60
2023-07-25T19:04:55.074Z,100311.80
2023-07-25T19:07:22.988Z,100315.80
2023-07-25T19:09:50.678Z,100320.40
2023-07-25T19:12:21.546Z,100330.60
2023-07-25T19:14:49.290Z,100326.00
2023-07-25T19:17:17.598Z,100334.20
2023-07-25T19:19:45.413Z,100335.80
2023-07-25T19:22:13.130Z,100336.80
2023-07-25T19:24:40.884Z,100337.00
2023-07-25T19:27:08.811Z,100337.80
2023-07-25T19:29:36.525Z,100342.20
2023-07-25T19:32:04.735Z,100342.20
2023-07-25T19:34:36.326Z,100340.60
2023-07-25T19:37:04.480Z,100341.60
2023-07-25T19:39:34.217Z,100344.20
2023-07-25T19:42:02.593Z,100345.60
2023-07-25T19:44:30.343Z,100346.40
2023-07-25T19:46:58.248Z,100342.00
2023-07-25T19:49:25.966Z,100342.60
2023-07-25T19:51:53.673Z,100348.00
2023-07-25T19:54:21.707Z,100349.80
2023-07-25T19:56:49.505Z,100348.40
2023-07-25T19:59:17.357Z,100348.60
2023-07-25T20:01:45.313Z,100351.20
2023-07-25T20:04:13.068Z,100354.20
2023-07-25T20:06:40.891Z,100356.40
2023-07-25T20:09:08.625Z,100359.20
2023-07-25T20:11:36.373Z,100362.40
2023-07-25T20:14:04.411Z,100360.60
2023-07-25T20:16:32.530Z,100364.80
2023-07-25T20:19:00.710Z,100371.80
2023-07-25T20:21:28.578Z,100378.40
2023-07-25T20:23:56.428Z,100379.60
2023-07-25T20:26:24.272Z,100381.40
2023-07-25T20:28:54.482Z,100386.40
2023-07-25T20:31:22.216Z,100390.60
2023-07-25T20:33:50.323Z,100395.20
2023-07-25T20:36:18.139Z,100395.80
2023-07-25T20:38:47.694Z,100398.00
2023-07-25T20:41:15.831Z,100399.00
2023-07-25T20:43:43.747Z,100405.40
2023-07-25T20:46:11.714Z,100405.20
2023-07-25T20:48:39.828Z,100406.80
2023-07-25T20:51:07.626Z,100404.40
2023-07-25T20:53:36.597Z,100411.40
2023-07-25T20:56:07.673Z,100411.60
2023-07-25T20:58:35.700Z,100413.80
2023-07-25T21:01:03.767Z,100416.00
2023-07-25T21:03:31.943Z,100415.60
2023-07-25T21:06:04.262Z,100412.00
2023-07-25T21:08:32.043Z,100422.60
2023-07-25T21:11:00.287Z,100424.60
2023-07-25T21:13:28.216Z,100423.40
2023-07-25T21:15:56.144Z,100428.60
2023-07-25T21:18:23.994Z,100432.40
2023-07-25T21:20:51.974Z,100435.60
2023-07-25T21:23:23.474Z,100432.80
2023-07-25T21:25:52.295Z,100431.60
2023-07-25T21:28:20.503Z,100430.40
2023-07-25T21:30:48.627Z,100428.00
2023-07-25T21:33:16.434Z,100437.80
2023-07-25T21:35:44.233Z,100441.00
2023-07-25T21:38:13.057Z,100440.00
2023-07-25T21:40:40.871Z,100441.60
2023-07-25T21:43:08.539Z,100445.20
2023-07-25T21:45:36.411Z,100446.60
2023-07-25T21:48:04.714Z,100444.20
2023-07-25T21:50:32.513Z,100446.60
2023-07-25T21:53:00.300Z,100443.40
2023-07-25T21:55:28.071Z,100445.20
2023-07-25T21:57:55.933Z,100444.60
2023-07-25T22:00:23.696Z,100450.20
2023-07-25T22:02:51.786Z,100452.40
2023-07-25T22:05:19.801Z,100446.00
2023-07-25T22:07:49.040Z,100450.80
2023-07-25T22:10:16.913Z,100452.40
2023-07-25T22:12:47.759Z,100454.20
2023-07-25T22:15:15.828Z,100451.60
2023-07-25T22:17:43.912Z,100460.60
2023-07-25T22:20:12.280Z,100459.20
2023-07-25T22:22:41.046Z,100456.20
2023-07-25T22:25:09.250Z,100462.00
2023-07-25T22:27:37.106Z,100455.40
2023-07-25T22:30:06.311Z,100454.00
2023-07-25T22:32:34.482Z,100453.20
2023-07-25T22:35:02.480Z,100452.60
2023-07-25T22:37:30.904Z,100451.60
2023-07-25T22:39:58.604Z,100453.80
2023-07-25T22:42:26.568Z,100451.80
2023-07-25T22:44:54.408Z,100459.80
2023-07-25T22:47:22.265Z,100453.00
2023-07-25T22:49:53.526Z,100451.00
2023-07-25T22:52:23.305Z,100453.60
2023-07-25T22:54:51.407Z,100453.80
2023-07-25T22:57:19.213Z,100450.00
2023-07-25T22:59:46.968Z,100447.40
2023-07-25T23:02:14.770Z,100446.00
2023-07-25T23:04:42.524Z,100449.00
2023-07-25T23:07:10.244Z,100457.80
2023-07-25T23:09:38.125Z,100457.40
2023-07-25T23:12:06.449Z,100462.00
2023-07-25T23:14:35.136Z,100462.80
2023-07-25T23:17:03.042Z,100457.60
2023-07-25T23:19:31.126Z,100460.00
2023-07-25T23:21:58.913Z,100453.80
2023-07-25T23:24:26.714Z,100453.00
2023-07-25T23:26:54.451Z,100452.00
2023-07-25T23:29:22.187Z,100455.20
2023-07-25T23:31:50.296Z,100454.80
2023-07-25T23:34:18.443Z,100451.60
2023-07-25T23:36:46.200Z,100459.00
2023-07-25T23:39:13.958Z,100456.20
2023-07-25T23:41:41.741Z,100453.60
2023-07-25T23:44:10.842Z,100457.40
2023-07-25T23:46:38.738Z,100457.00
2023-07-25T23:49:06.514Z,100460.40
2023-07-25T23:51:34.230Z,100461.60
2023-07-25T23:54:02.145Z,100465.40
2023-07-25T23:56:29.975Z,100465.20
2023-07-25T23:58:57.824Z,100469.40
